Home > Products > Valid Products > TAF

000
FTUS46 KMTR 020300 AAA
TAFSFO
TAF AMD
KSFO 020322Z 0203/0306 30010KT P6SM FEW010
     FM020900 29006KT P6SM SCT010
     FM021800 29011KT P6SM FEW010
     FM022100 29018KT P6SM SKC=



000
FTUS46 KMTR 012300
TAFOAK
TAF
KOAK 012339Z 0200/0306 30011KT P6SM SKC
     FM020600 30005KT P6SM SKC
     FM021200 31005KT P6SM BKN015
     FM021700 25005KT P6SM FEW020
     FM022100 29013KT P6SM SKC=



000
FTUS46 KMTR 012300
TAFSNS
TAF
KSNS 012339Z 0200/0224 30012KT P6SM SKC
     FM020500 29006KT P6SM OVC006=



000
FTUS46 KMTR 012300
TAFSFO
TAF
KSFO 012339Z 0200/0306 29020KT P6SM SKC
     FM020300 29010KT P6SM SKC
     FM020900 29006KT P6SM SCT010
     FM021800 29011KT P6SM FEW010
     FM022100 29018KT P6SM SKC=



000
FTUS46 KMTR 012300
TAFMRY
TAF
KMRY 012339Z 0200/0224 24010KT P6SM SKC
     FM020200 22005KT P6SM SKC
      TEMPO 0203/0206 OVC008
     FM021300 VRB03KT P6SM OVC009
     FM021700 30006KT P6SM FEW010
     FM022300 30011KT P6SM SKC=



000
FTUS46 KMTR 012300
TAFSJC
TAF
KSJC 012339Z 0200/0224 30014KT P6SM SKC
     FM020200 30010KT P6SM SKC
     FM020500 30005KT P6SM SKC
     FM020700 00000KT P6SM SKC
     FM021700 VRB04KT P6SM SKC
     FM022100 30011KT P6SM SKC=



000
FTUS46 KMTR 012300
TAFSTS
TAF
KSTS 012339Z 0200/0224 17009KT 6SM HZ SKC
     FM020400 VRB03KT 6SM HZ SKC
     FM020700 00000KT 6SM HZ SKC
     FM021900 19005KT P6SM SKC
     FM022200 18010KT P6SM SKC=



000
FTUS46 KMTR 012100 AAA
TAFSFO
TAF AMD
KSFO 012106Z 0121/0224 29015G21KT P6SM SKC
     FM020400 29008KT P6SM FEW010
     FM020900 29006KT P6SM SCT010
     FM022100 29015KT P6SM SKC=



000
FTUS46 KMTR 011700
TAFSNS
TAF
KSNS 011724Z 0118/0218 VRB04KT P6SM SCT006
     FM011900 29012KT P6SM SKC
     FM020500 29006KT P6SM OVC006=



000
FTUS46 KMTR 011700
TAFSJC
TAF
KSJC 011724Z 0118/0218 VRB03KT P6SM SKC
     FM012000 31012KT P6SM SKC
     FM021000 VRB04KT P6SM SKC=



000
FTUS46 KMTR 011700
TAFSFO
TAF
KSFO 011724Z 0118/0224 04005KT P6SM SKC
     FM012000 28015G21KT P6SM SKC
     FM020400 29008KT P6SM FEW010
     FM020900 29006KT P6SM SCT010
     FM022100 29015KT P6SM SKC=



000
FTUS46 KMTR 011700
TAFMRY
TAF
KMRY 011724Z 0118/0218 29005KT P6SM SCT010
     FM011900 29009KT P6SM SKC
     FM020200 24005KT P6SM SCT009
     FM020500 24004KT P6SM OVC006=



000
FTUS46 KMTR 011700
TAFSTS
TAF
KSTS 011724Z 0118/0218 VRB03KT P6SM SKC
     FM012100 19007KT P6SM SKC
     FM020300 VRB03KT P6SM SKC=



000
FTUS46 KMTR 011700
TAFOAK
TAF
KOAK 011724Z 0118/0224 VRB03KT P6SM SKC
     FM012000 29014KT P6SM SKC
     FM020300 29007KT P6SM FEW012
     FM021200 31005KT P6SM BKN015
     FM021700 29005KT P6SM FEW020=



000
FTUS46 KMTR 011500 AAA
TAFSFO
TAF AMD
KSFO 011503Z 0115/0218 29004KT P6SM SKC
     FM012000 29016G21KT P6SM SKC
     FM020400 29011KT P6SM FEW010
     FM020900 29006KT P6SM SCT010=



000
FTUS46 KMTR 011300 AAA
TAFMRY
TAF AMD
KMRY 011348Z 0114/0212 VRB03KT P6SM OVC008
     FM011700 29005KT P6SM SCT010
     FM011900 29008KT P6SM SKC
     FM020200 24005KT P6SM SCT009
     FM020400 24004KT P6SM OVC006=



000
FTUS46 KMTR 011100
TAFMRY
TAF
KMRY 011120Z 0112/0212 VRB03KT P6SM SCT005
      TEMPO 0113/0116 BKN005
     FM011700 29008KT P6SM SKC
     FM020200 24005KT P6SM SCT009
     FM020400 24004KT P6SM OVC006=



000
FTUS46 KMTR 011100
TAFSJC
TAF
KSJC 011120Z 0112/0212 VRB03KT P6SM SKC
     FM011800 31012KT P6SM SKC
     FM020300 30007KT P6SM SKC
     FM021000 VRB03KT P6SM SKC=



000
FTUS46 KMTR 011100
TAFSFO
TAF
KSFO 011120Z 0112/0218 29006KT P6SM FEW010
     FM012100 29016G21KT P6SM SKC
     FM020400 29011KT P6SM FEW010
     FM020900 29006KT P6SM SCT010=



000
FTUS46 KMTR 011100
TAFSNS
TAF
KSNS 011120Z 0112/0212 29004KT P6SM BKN005
     FM011700 29005KT P6SM SCT006
     FM011900 29012KT P6SM SKC
     FM020200 29009KT P6SM SCT008
     FM020400 29006KT P6SM OVC006=



000
FTUS46 KMTR 011100
TAFSTS
TAF
KSTS 011120Z 0112/0212 VRB03KT P6SM SKC
     FM011730 19007KT P6SM SKC
     FM020300 VRB03KT P6SM SKC=



000
FTUS46 KMTR 011100
TAFOAK
TAF
KOAK 011120Z 0112/0218 VRB03KT P6SM SKC
     FM012000 29014KT P6SM SKC
     FM020300 29007KT P6SM FEW012
     FM021000 31005KT P6SM SCT010=



000
FTUS46 KMTR 010900 AAA
TAFSFO
TAF AMD
KSFO 010921Z 0109/0212 29006KT P6SM FEW010
     FM011200 29006KT P6SM FEW010
     FM012100 29016G21KT P6SM SKC
     FM020400 29011KT P6SM FEW010=



000
FTUS46 KMTR 010500
TAFSNS
TAF
KSNS 010520Z 0106/0206 29004KT P6SM SKC
     FM010800 VRB03KT P6SM SCT005
      TEMPO 0108/0112 BKN005
     FM011200 29009KT P6SM BKN005
     FM011700 31012KT P6SM SKC
     FM020300 29009KT P6SM SCT007=



000
FTUS46 KMTR 010500
TAFMRY
TAF
KMRY 010520Z 0106/0206 24004KT P6SM SKC
     FM010700 24004KT P6SM SCT005
      TEMPO 0108/0112 BKN005
     FM011200 VRB03KT P6SM BKN005
     FM011700 29007KT P6SM SKC
     FM020400 24004KT P6SM FEW009=



000
FTUS46 KMTR 010500
TAFSFO
TAF
KSFO 010520Z 0106/0212 29011KT P6SM FEW010
     FM011200 29006KT P6SM FEW010
     FM012100 29016G21KT P6SM SKC
     FM020400 29011KT P6SM FEW010=



000
FTUS46 KMTR 010500
TAFSTS
TAF
KSTS 010520Z 0106/0206 VRB03KT P6SM SKC
     FM010800 31004KT P6SM SKC
     FM011730 19007KT P6SM SKC
     FM020300 VRB03KT P6SM SKC=



000
FTUS46 KMTR 010500
TAFSJC
TAF
KSJC 010520Z 0106/0206 30006KT P6SM SKC
     FM010800 VRB03KT P6SM SKC
     FM011800 31012KT P6SM SKC
     FM020300 30007KT P6SM SKC=



000
FTUS46 KMTR 010500
TAFOAK
TAF
KOAK 010520Z 0106/0212 29007KT P6SM SKC
     FM011200 25006KT P6SM SCT012
      TEMPO 0113/0117 BKN011
     FM011800 29012KT P6SM FEW015
     FM012100 29016G20KT P6SM FEW015
     FM020300 29007KT P6SM FEW012=



000
FTUS46 KMTR 010300 AAA
TAFSFO
TAF AMD
KSFO 010302Z 0103/0206 29011KT P6SM FEW010
     FM011200 29006KT P6SM FEW010
     FM012100 29016G21KT P6SM SKC
     FM020400 29011KT P6SM FEW010=



000
FTUS46 KMTR 010200 AAA
TAFSNS
TAF AMD
KSNS 010205Z 0102/0124 29017KT P6SM SCT016
      TEMPO 0102/0103 BKN016
     FM010300 29004KT P6SM SKC
     FM010800 VRB03KT P6SM BKN005
     FM011700 31012KT P6SM SKC=



000
FTUS46 KMTR 312300
TAFSFO
TAF
KSFO 312320Z 0100/0206 29018G24KT P6SM FEW012
     FM010400 29012KT P6SM FEW010
     FM011200 29006KT P6SM FEW010
     FM012100 29016G21KT P6SM SKC
     FM020400 29011KT P6SM FEW010=



000
FTUS46 KMTR 312300
TAFOAK
TAF
KOAK 312320Z 0100/0206 28012KT P6SM SKC
     FM010300 29007KT P6SM SKC
     FM011200 25006KT P6SM SCT012
      TEMPO 0113/0117 BKN011
     FM011800 29012KT P6SM FEW015
     FM012100 29016G20KT P6SM FEW015
     FM020300 29007KT P6SM FEW012=



000
FTUS46 KMTR 312300
TAFSNS
TAF
KSNS 312320Z 0100/0124 29017KT P6SM SKC
     FM010300 29004KT P6SM SKC
     FM010800 VRB03KT P6SM BKN005
     FM011700 31012KT P6SM SKC=



000
FTUS46 KMTR 312300
TAFSJC
TAF
KSJC 312320Z 0100/0124 31012KT P6SM SKC
     FM010400 30006KT P6SM SKC
     FM010800 VRB03KT P6SM SKC
     FM011800 31012KT P6SM SKC=



000
FTUS46 KMTR 312300
TAFMRY
TAF
KMRY 312320Z 0100/0124 29009KT P6SM SKC
     FM010300 24004KT P6SM SKC
     FM010700 24004KT P6SM BKN005
     FM011700 29007KT P6SM SKC=



000
FTUS46 KMTR 312300
TAFSTS
TAF
KSTS 312320Z 0100/0124 19009KT P6SM SKC
     FM010400 VRB03KT P6SM SKC
     FM010800 31004KT P6SM SKC
     FM011730 19007KT P6SM SKC=



000
FTUS46 KMTR 312100 AAA
TAFSFO
TAF AMD
KSFO 312106Z 3121/0124 29018G24KT P6SM FEW012
     FM010400 29012KT P6SM FEW010
     FM011200 29006KT P6SM FEW010
     FM012100 29016KT P6SM SKC=



000
FTUS46 KMTR 311700
TAFSTS
TAF
KSTS 311720Z 3118/0118 VRB04KT P6SM SKC
     FM312000 19009KT P6SM SKC
     FM010300 VRB03KT P6SM SKC=



000
FTUS46 KMTR 311700
TAFSFO
TAF
KSFO 311720Z 3118/0124 29010KT P6SM FEW010
     FM312100 29018G25KT P6SM SKC
     FM010400 29012KT P6SM SKC
     FM011200 29006KT P6SM FEW010
     FM012100 29016KT P6SM SKC=



000
FTUS46 KMTR 311700
TAFSNS
TAF
KSNS 311720Z 3118/0118 29006KT P6SM FEW010
     FM312000 29012KT P6SM SKC
     FM010300 29004KT P6SM SKC
     FM010800 VRB03KT P6SM BKN005=



000
FTUS46 KMTR 311700
TAFOAK
TAF
KOAK 311720Z 3118/0124 29005KT P6SM SCT014
     FM312000 28012KT P6SM SKC
     FM010300 29007KT P6SM SKC
     FM011200 25006KT P6SM BKN012
     FM011800 29012KT P6SM SCT015=



000
FTUS46 KMTR 311700
TAFSJC
TAF
KSJC 311720Z 3118/0118 VRB03KT P6SM SKC
     FM311900 31012KT P6SM SKC
     FM010400 30006KT P6SM SKC=



000
FTUS46 KMTR 311700
TAFMRY
TAF
KMRY 311720Z 3118/0118 24004KT P6SM SCT007
     FM312000 29009KT P6SM SKC
     FM010300 24004KT P6SM SKC
     FM010700 24004KT P6SM BKN005=



000
FTUS46 KMTR 311500 AAA
TAFSNS
TAF AMD
KSNS 311553Z 3116/0112 29006KT P6SM FEW010
     FM312000 29012KT P6SM SKC
     FM010300 29004KT P6SM SKC
     FM010800 VRB03KT P6SM BKN005=



000
FTUS46 KMTR 311500 AAA
TAFSFO
TAF AMD
KSFO 311502Z 3115/0118 29007KT P6SM FEW010
     FM312100 29018G25KT P6SM SKC
     FM010400 29012KT P6SM SKC
     FM011200 29006KT P6SM FEW010=



000
FTUS46 KMTR 311100
TAFSTS
TAF
KSTS 311128Z 3112/0112 VRB04KT P6SM SKC
     FM311800 19009KT P6SM SKC
     FM010300 VRB03KT P6SM SKC=



000
FTUS46 KMTR 311100
TAFSJC
TAF
KSJC 311128Z 3112/0112 VRB03KT P6SM SKC
     FM311800 31012KT P6SM SKC
     FM010400 30006KT P6SM SKC=



000
FTUS46 KMTR 311100
TAFOAK
TAF
KOAK 311128Z 3112/0118 29007KT P6SM SCT012
      TEMPO 3112/3116 BKN012
     FM311700 29005KT P6SM SKC
     FM312000 28012KT P6SM SKC
     FM010300 29007KT P6SM SKC=



000
FTUS46 KMTR 311100
TAFSNS
TAF
KSNS 311128Z 3112/0112 VRB03KT P6SM OVC005
     FM311700 29010KT P6SM SKC
     FM010300 29004KT P6SM SKC
     FM010800 VRB03KT P6SM BKN005=



000
FTUS46 KMTR 311100
TAFMRY
TAF
KMRY 311128Z 3112/0112 23004KT P6SM OVC005
     FM311700 29004KT P6SM SCT007
     FM311900 29008KT P6SM SKC
     FM010300 24004KT P6SM SKC
     FM010700 24004KT P6SM BKN005=



000
FTUS46 KMTR 311100
TAFSFO
TAF
KSFO 311128Z 3112/0118 29010KT P6SM FEW010
     FM312100 29018G25KT P6SM SKC
     FM010400 29012KT P6SM SKC
     FM011200 29006KT P6SM FEW010=



000
FTUS46 KMTR 310800 AAA
TAFSFO
TAF AMD
KSFO 310856Z 3109/0112 29015KT P6SM FEW010 SCT200
     FM312100 29017G25KT P6SM FEW010 SCT200
     FM010400 29011KT P6SM FEW200=



000
FTUS46 KMTR 310500
TAFSJC
TAF
KSJC 310520Z 3106/0106 31006KT P6SM SCT200
     FM311800 32012KT P6SM SCT200
     FM010400 30009KT P6SM SCT200=



000
FTUS46 KMTR 310500
TAFSNS
TAF
KSNS 310520Z 3106/0106 29005KT P6SM SCT007
      TEMPO 3106/3107 BKN007
     FM310700 VRB03KT 3SM BR OVC003
     FM311730 29009KT P6SM FEW200
     FM010300 24004KT P6SM FEW200=



000
FTUS46 KMTR 310500
TAFSTS
TAF
KSTS 310520Z 3106/0106 31009KT P6SM FEW200
     FM311200 VRB04KT P6SM FEW200
     FM311800 19009KT P6SM FEW200
     FM010300 VRB03KT P6SM FEW200=



000
FTUS46 KMTR 310500
TAFSFO
TAF
KSFO 310520Z 3106/0112 29017KT P6SM FEW010 SCT200
     FM312100 29017G25KT P6SM FEW010 SCT200
     FM010400 29011KT P6SM FEW200=



000
FTUS46 KMTR 310500
TAFOAK
TAF
KOAK 310520Z 3106/0112 29009KT P6SM FEW200
     FM312000 28012KT P6SM FEW200
     FM010300 29007KT P6SM FEW200=



000
FTUS46 KMTR 310500
TAFMRY
TAF
KMRY 310520Z 3106/0106 24005KT P6SM SCT005
     FM310800 10003KT 1SM BR OVC002
     FM311700 29009KT P6SM FEW200
     FM010300 24004KT P6SM FEW200=



000
FTUS46 KMTR 310300 AAA
TAFSFO
TAF AMD
KSFO 310309Z 3103/0106 29018G27KT P6SM FEW010 SCT200
     FM310400 29012KT P6SM FEW010 SCT200
     FM312100 29017G25KT P6SM FEW010 SCT200
     FM010400 29011KT P6SM FEW200=



000
FTUS46 KMTR 310100 AAA
TAFSTS
TAF AMD
KSTS 310132Z 3102/3124 32010G17KT P6SM SCT200
     FM310300 31009KT P6SM FEW200
     FM311200 VRB04KT P6SM FEW200
     FM311800 19009KT P6SM FEW200=



000
FTUS46 KMTR 302300
TAFSTS
TAF
KSTS 302320Z 3100/3124 19011KT P6SM SCT200
     FM310300 VRB03KT P6SM FEW200
     FM311800 19009KT P6SM FEW200=



000
FTUS46 KMTR 302300
TAFSNS
TAF
KSNS 302320Z 3100/3124 29012KT P6SM SCT200
     FM310400 29005KT P6SM SCT007
      TEMPO 3104/3107 BKN007
     FM310700 VRB03KT 3SM BR OVC003
     FM311730 29009KT P6SM FEW200=



000
FTUS46 KMTR 302300
TAFSFO
TAF
KSFO 302320Z 3100/0106 29018G27KT P6SM FEW010 SCT200
     FM310400 29012KT P6SM FEW010 SCT200
     FM312100 29017G25KT P6SM FEW010 SCT200
     FM010400 29011KT P6SM FEW200=



000
FTUS46 KMTR 302300
TAFOAK
TAF
KOAK 302320Z 3100/0106 28014KT P6SM FEW200
     FM310300 29009KT P6SM FEW200
     FM312000 28012KT P6SM FEW200
     FM010300 29007KT P6SM FEW200=



000
FTUS46 KMTR 302300
TAFSJC
TAF
KSJC 302320Z 3100/3124 33012KT P6SM SCT200
     FM310300 31006KT P6SM SCT200
     FM311800 32012KT P6SM SCT200=



000
FTUS46 KMTR 302300
TAFMRY
TAF
KMRY 302320Z 3100/3124 29008KT P6SM SCT200
     FM310600 24005KT P6SM SCT005
     FM310800 10003KT 1SM BR OVC002
     FM311700 29009KT P6SM FEW200=



000
FTUS46 KMTR 301700
TAFSFO
TAF
KSFO 301728Z 3018/3124 29008KT P6SM FEW008 SCT200
     FM302100 29018KT P6SM FEW010 SCT200
     FM310300 29010KT P6SM FEW010
     FM312100 29017KT P6SM FEW010=



000
FTUS46 KMTR 301700
TAFSTS
TAF
KSTS 301728Z 3018/3118 VRB04KT P6SM FEW200
     FM302100 19007KT P6SM SKC
     FM310300 VRB03KT P6SM SKC=



000
FTUS46 KMTR 301700
TAFOAK
TAF
KOAK 301728Z 3018/3124 30004KT P6SM FEW010 SCT200
     FM302000 28014KT P6SM SKC
     FM310300 29009KT P6SM FEW010
     FM312000 28012KT P6SM SKC=



000
FTUS46 KMTR 301700
TAFSNS
TAF
KSNS 301728Z 3018/3118 VRB04KT P6SM SCT200
     FM302100 29009KT P6SM SCT200
     FM310400 29005KT P6SM BKN005
     FM310600 VRB03KT 3SM BR OVC003=



000
FTUS46 KMTR 301700
TAFSJC
TAF
KSJC 301728Z 3018/3118 15003KT P6SM SCT200
     FM302100 33012KT P6SM SCT200
     FM310300 31006KT P6SM SKC=



000
FTUS46 KMTR 301700
TAFMRY
TAF
KMRY 301728Z 3018/3118 VRB03KT P6SM FEW002 SCT200
     FM302000 29008KT P6SM SCT200
     FM310400 24005KT P6SM BKN005
     FM310800 10003KT 1SM BR OVC002=



000
FTUS46 KMTR 301500 AAB
TAFOAK
TAF AMD
KOAK 301500Z 3015/3118 30004KT P6SM FEW010 BKN200
     FM302000 28014KT P6SM SCT200
     FM310300 29009KT P6SM SCT200=



000
FTUS46 KMTR 301400 AAA
TAFSFO
TAF AMD
KSFO 301436Z 3015/3118 29008KT P6SM FEW008 BKN200
     FM302100 29018KT P6SM FEW010 SCT200
     FM310300 29010KT P6SM FEW010 SCT200=



000
FTUS46 KMTR 301300 AAA
TAFOAK
TAF AMD
KOAK 301320Z 3013/3118 30009KT P6SM SCT008 BKN200
      TEMPO 3013/3016 BKN008
     FM301700 28009KT P6SM SCT200
     FM302000 28014KT P6SM SCT200
     FM310300 29009KT P6SM SCT200=



000
FTUS46 KMTR 301300 AAA
TAFMRY
TAF AMD
KMRY 301318Z 3013/3112 VRB03KT P6SM SCT200
      TEMPO 3013/3016 1SM BR OVC002
     FM301900 29008KT P6SM SCT200
     FM310400 24005KT P6SM BKN005
     FM310800 10003KT 1SM BR OVC002=



000
FTUS46 KMTR 301100
TAFSNS
TAF
KSNS 301120Z 3012/3112 32003KT 1SM BR OVC003
     FM301600 32005KT P6SM SCT200
     FM301900 29009KT P6SM SCT200
     FM310400 29005KT P6SM BKN005
     FM310600 VRB03KT 3SM BR OVC003=



000
FTUS46 KMTR 301100
TAFMRY
TAF
KMRY 301120Z 3012/3112 09004KT 1SM BR BKN005
     FM301600 29003KT P6SM FEW005 BKN200
     FM301900 29008KT P6SM SCT200
     FM310400 24005KT P6SM BKN005
     FM310800 10003KT 1SM BR OVC002=



000
FTUS46 KMTR 301100
TAFSTS
TAF
KSTS 301120Z 3012/3112 15004KT P6SM SCT200
     FM301300 VRB03KT 1/2SM FG OVC003
     FM301600 VRB04KT P6SM SCT005 BKN200
     FM301900 19007KT P6SM SCT200
     FM310300 VRB03KT P6SM SCT200=



000
FTUS46 KMTR 301100
TAFOAK
TAF
KOAK 301120Z 3012/3118 30009KT P6SM SCT008 BKN200
     FM301300 31005KT P6SM BKN008
     FM301700 28009KT P6SM SCT010 BKN200
     FM302000 28014KT P6SM SCT200
     FM310300 29009KT P6SM SCT200=



000
FTUS46 KMTR 301100
TAFSFO
TAF
KSFO 301120Z 3012/3118 29014KT P6SM SCT008 BKN200
      TEMPO 3012/3016 5SM BR BKN008
     FM301800 30012KT P6SM SCT010 BKN200
     FM302100 29018KT P6SM FEW010 SCT200
     FM310300 29010KT P6SM FEW010 SCT200=



000
FTUS46 KMTR 301100
TAFSJC
TAF
KSJC 301120Z 3012/3112 15003KT P6SM SCT200
     FM302000 33012KT P6SM SCT200
     FM310300 31006KT P6SM SCT200=



000
FTUS46 KMTR 300500
TAFSFO
TAF
KSFO 300540Z 3006/3112 29014KT P6SM FEW008 SCT200
     FM300700 29010KT P6SM BKN010 OVC200
     FM301800 30012KT P6SM SCT010 BKN200
     FM302100 29018KT P6SM FEW010 SCT200
     FM310300 29012KT P6SM FEW010 SCT200=



000
FTUS46 KMTR 300500
TAFOAK
TAF
KOAK 300540Z 3006/3112 30009KT P6SM SCT200
     FM300800 31005KT P6SM SCT011 BKN200
     FM301000 31005KT P6SM OVC008
     FM301800 28009KT P6SM SCT010 BKN200
     FM302100 28014KT P6SM SCT200
     FM310300 29009KT P6SM SCT200=



000
FTUS46 KMTR 300500
TAFSTS
TAF
KSTS 300540Z 3006/3106 15004KT P6SM SCT200
      TEMPO 3009/3013 BKN005 OVC200
     FM301300 VRB03KT P6SM OVC005
     FM301630 VRB04KT P6SM SCT008 BKN200
     FM301900 19007KT P6SM SCT200
     FM310300 VRB03KT P6SM SCT200=



000
FTUS46 KMTR 300500
TAFMRY
TAF
KMRY 300540Z 3006/3106 24007KT P6SM BKN008
      TEMPO 3006/3009 SCT008
     FM300900 24005KT P6SM OVC005
     FM301730 29007KT P6SM FEW012 BKN200
     FM310300 24004KT P6SM BKN010=



000
FTUS46 KMTR 300500
TAFSJC
TAF
KSJC 300540Z 3006/3106 32005KT P6SM SCT200
     FM301000 15003KT P6SM BKN012 OVC200
     FM301800 34012KT P6SM SCT015 BKN200
     FM310300 31009KT P6SM SCT015 BKN200=



000
FTUS46 KMTR 300500
TAFSNS
TAF
KSNS 300540Z 3006/3106 28009KT P6SM BKN008
      TEMPO 3006/3007 SCT008
     FM300700 28006KT P6SM OVC005
     FM301800 29009KT P6SM FEW012 BKN200
     FM310300 24004KT P6SM BKN010=



    US Dept of Commerce
    National Oceanic and Atmospheric Administration
    National Weather Service
    1325 East West Highway
    Silver Spring, MD 20910
    Page Author: NWS Internet Services Team
Disclaimer
Information Quality
Credits
Glossary
Privacy Policy
Freedom of Information Act (FOIA)
About Us
Career Opportunities